Etusivu
Satelliittikuvat 15 päivän ennusteetIlmastoMerisää Syklonit Salamointi LentoasematUKK Uutiskirje Muuta
Sää : Eurooppa Afrikka Pohjois-Amerikka Etelä-Amerikka Aasia Australia-Oseania Muut
Kielet Yhteydenotto

Kittilä, Suomi

Leveyspiiri: 67-42N, Pituuspiiri: 024-51E, korkeus merenpinnasta: 196 m


METAR: EFKT 200320Z AUTO 03007KT 340V070 9999 OVC015 M04/M05 Q1004
TAF: EFKT 190838Z 1909/1911 05006KT 2500 BR OVC003 BECMG 1909/1911 9999 BKN010

Aika: 07:19 (04:19 UTC)

Tämänhetkinen sää

Tämä raportti tehtiin 59 minuuttia sitten, kello 03:20 UTC  
Tuuli 07 kn   pohjoisesta/koillisesta, vaihdellen pohjoisesta/luoteesta ja idästä/koillisesta
Lämpötila -4°C
Kosteus 93%
Ilmanpaine 1004 hPa
Näkyvyys 10 km tai enemmän
pilvistä klo korkeus 1500 ft

Muuta yksikköjä

Sääennuste

Tämä raportti tehtiin 19 tuntia ja 41 minuuttia sitten, kello 08:38 UTC  
Ennuste voimassa 19 klo 09 UTC - 19 klo 11 UTC
Tuuli 06 kn   koillisesta
Näkyvyys 2500 m
pilvistä klo korkeus 300 ft
utua
Tulossa
  19 klo 09 UTC - 19 klo 11 UTC
Näkyvyys 10 km tai enemmän
Hajonneita pilviä klo korkeus 1000 ft
Tällä sivustolla oleviin tietoihin sovelletaan vastuuvapauslauseketta
Sää : Eurooppa Afrikka Pohjois-Amerikka Etelä-Amerikka Aasia Australia-Oseania Muut
Satelliittikuvat 15 päivän ennusteetIlmastoMerisää Syklonit Salamointi LentoasematUKK Kielet Yhteydenotto Uutiskirje Muuta